Time;durP1;ratioP1;P1;durP2;ratioP2;P2;SDS_P1;SDS_P2;PMS_P1;PMS_P2;Temp;Humidity;BMP_temperature;BMP_pressure;BME280_temperature;BME280_humidity;BME280_pressure;Samples;Min_cycle;Max_cycle;Signal;HPM_P1;HPM_P2
2021/08/09 00:02:21;;;;;;;1.52;0.70;;;16.30;90.60;;;;;;6136740;23;20005;-86
2021/08/09 00:04:46;;;;;;;2.33;1.08;;;16.30;90.60;;;;;;6133683;23;20048;-85
2021/08/09 00:07:12;;;;;;;3.45;1.15;;;16.30;90.70;;;;;;6133794;23;20036;-86
2021/08/09 00:09:38;;;;;;;1.75;0.70;;;16.30;90.60;;;;;;6133246;23;20100;-87
2021/08/09 00:12:04;;;;;;;2.08;0.90;;;16.30;90.70;;;;;;6133667;23;20009;-85
2021/08/09 00:14:29;;;;;;;1.70;0.73;;;16.30;90.70;;;;;;6158675;23;20005;-85
2021/08/09 00:16:55;;;;;;;1.67;0.80;;;16.20;90.90;;;;;;6159186;23;20084;-85
2021/08/09 00:19:21;;;;;;;3.47;1.10;;;16.30;90.80;;;;;;6136044;23;20006;-85
2021/08/09 00:21:46;;;;;;;1.65;1.00;;;16.30;90.90;;;;;;6135421;23;20393;-85
2021/08/09 00:24:12;;;;;;;1.50;0.90;;;16.20;90.90;;;;;;6135116;23;20001;-85
2021/08/09 00:26:37;;;;;;;1.15;0.73;;;16.30;91.00;;;;;;6133802;23;20009;-85
2021/08/09 00:29:03;;;;;;;2.80;0.80;;;16.30;90.90;;;;;;6133719;23;20064;-86
2021/08/09 00:31:28;;;;;;;3.75;0.93;;;16.30;90.80;;;;;;6133687;23;20089;-85
2021/08/09 00:33:54;;;;;;;1.60;0.60;;;16.30;90.90;;;;;;6149200;23;20168;-86
2021/08/09 00:36:19;;;;;;;1.70;0.68;;;16.30;90.80;;;;;;6138981;23;20016;-86
2021/08/09 00:38:45;;;;;;;1.48;1.00;;;16.30;91.00;;;;;;6133359;23;20044;-86
2021/08/09 00:41:11;;;;;;;1.20;0.88;;;16.30;90.90;;;;;;6134341;23;20020;-85
2021/08/09 00:43:36;;;;;;;1.10;0.80;;;16.20;90.90;;;;;;6158467;23;20013;-85
2021/08/09 00:46:04;;;;;;;2.05;0.95;;;16.30;91.00;;;;;;6133234;23;20001;-86
2021/08/09 00:48:34;;;;;;;2.35;0.90;;;16.20;91.10;;;;;;6134424;23;20001;-86
2021/08/09 00:51:00;;;;;;;1.45;0.80;;;16.20;91.10;;;;;;6133229;23;20350;-86
2021/08/09 00:53:25;;;;;;;2.28;0.90;;;16.20;91.20;;;;;;6133441;23;20005;-85
2021/08/09 00:55:52;;;;;;;1.50;0.90;;;16.20;91.30;;;;;;6132757;23;20324;-86
2021/08/09 00:58:18;;;;;;;3.30;1.15;;;16.20;91.50;;;;;;6158694;23;20009;-86
2021/08/09 01:00:44;;;;;;;2.22;0.88;;;16.10;91.60;;;;;;6158715;23;20125;-86
2021/08/09 01:03:09;;;;;;;2.55;0.85;;;16.10;91.70;;;;;;6132835;23;20030;-86
2021/08/09 01:05:35;;;;;;;2.25;0.63;;;16.10;91.80;;;;;;6158982;23;20001;-85
2021/08/09 01:08:19;;;;;;;1.77;0.95;;;16.10;91.80;;;;;;6173185;23;20005;-84
2021/08/09 01:11:26;;;;;;;1.17;0.88;;;16.00;91.90;;;;;;6133176;23;20333;-86
2021/08/09 01:14:19;;;;;;;2.45;0.80;;;16.00;91.90;;;;;;6132747;23;20381;-85
2021/08/09 01:16:45;;;;;;;1.90;1.27;;;15.90;92.00;;;;;;6158644;23;20075;-85
2021/08/09 01:19:38;;;;;;;2.58;1.10;;;15.90;92.00;;;;;;6133231;23;20002;-88
2021/08/09 01:22:37;;;;;;;1.88;0.93;;;15.90;92.00;;;;;;6133276;23;20009;-86
2021/08/09 01:25:10;;;;;;;1.20;0.90;;;15.90;92.10;;;;;;6145872;23;20010;-86
2021/08/09 01:27:39;;;;;;;2.55;1.13;;;15.80;92.10;;;;;;6164671;23;20004;-85
2021/08/09 01:30:08;;;;;;;4.45;1.33;;;15.80;92.20;;;;;;6134711;23;20005;-85
2021/08/09 01:32:38;;;;;;;2.35;1.48;;;15.80;92.20;;;;;;6132485;23;20036;-86
2021/08/09 01:35:09;;;;;;;3.53;1.40;;;15.80;92.20;;;;;;6133841;23;20009;-86
2021/08/09 01:37:37;;;;;;;1.35;1.02;;;15.80;92.10;;;;;;6158186;23;20009;-86
2021/08/09 01:40:05;;;;;;;1.77;1.17;;;15.80;92.20;;;;;;6158586;23;20312;-86
2021/08/09 01:42:31;;;;;;;5.15;1.35;;;15.70;92.20;;;;;;6132978;23;20537;-86
2021/08/09 01:44:57;;;;;;;1.88;1.67;;;15.70;92.30;;;;;;6158555;23;20005;-86
2021/08/09 01:47:22;;;;;;;4.03;1.27;;;15.70;92.40;;;;;;6133268;23;20285;-87
2021/08/09 01:49:49;;;;;;;2.05;1.20;;;15.70;92.50;;;;;;6132539;23;20005;-86
2021/08/09 01:52:15;;;;;;;4.53;0.90;;;15.60;92.50;;;;;;6133369;23;20041;-86
2021/08/09 01:54:41;;;;;;;2.05;1.13;;;15.60;92.60;;;;;;6158334;23;20076;-86
2021/08/09 01:57:07;;;;;;;2.33;1.00;;;15.60;92.50;;;;;;6168928;23;20118;-85
2021/08/09 01:59:32;;;;;;;4.10;1.13;;;15.60;92.70;;;;;;6146900;23;20453;-86
2021/08/09 02:01:58;;;;;;;1.33;0.85;;;15.60;92.80;;;;;;6132612;23;20009;-86
2021/08/09 02:04:23;;;;;;;2.58;1.20;;;15.60;92.80;;;;;;6158684;23;20102;-86
2021/08/09 02:06:49;;;;;;;0.95;0.85;;;15.60;92.80;;;;;;6158488;23;20349;-86
2021/08/09 02:09:16;;;;;;;3.80;1.13;;;15.50;92.90;;;;;;6132535;23;20020;-86
2021/08/09 02:12:01;;;;;;;2.95;0.95;;;15.50;93.00;;;;;;6158365;23;20338;-86
2021/08/09 02:14:31;;;;;;;2.08;1.38;;;15.50;93.00;;;;;;6132361;23;20073;-86
2021/08/09 02:17:10;;;;;;;1.50;1.02;;;15.50;93.00;;;;;;6159626;23;20069;-86
2021/08/09 02:19:54;;;;;;;1.38;0.90;;;15.50;93.00;;;;;;6158085;23;20005;-86
2021/08/09 02:22:28;;;;;;;1.75;1.10;;;15.50;93.10;;;;;;6142857;23;20651;-85
2021/08/09 02:25:01;;;;;;;1.77;1.13;;;15.50;93.10;;;;;;6140133;23;20381;-84
2021/08/09 02:27:32;;;;;;;;;;;15.50;93.10;;;;;;6160552;23;20055;-85
2021/08/09 02:29:58;;;;;;;2.65;1.17;;;15.50;93.20;;;;;;6159311;23;19919;-85
2021/08/09 02:32:29;;;;;;;1.73;1.20;;;15.40;93.20;;;;;;6133909;23;20009;-86
2021/08/09 02:34:56;;;;;;;3.75;1.27;;;15.40;93.30;;;;;;6134951;23;20242;-86
2021/08/09 02:37:22;;;;;;;1.67;1.15;;;15.40;93.50;;;;;;6159879;23;20005;-85
2021/08/09 02:39:49;;;;;;;1.33;1.17;;;15.40;93.40;;;;;;6134346;23;20503;-86
2021/08/09 02:42:15;;;;;;;1.92;1.00;;;15.40;93.40;;;;;;6134342;23;20091;-86
2021/08/09 02:44:41;;;;;;;3.22;1.00;;;15.40;93.40;;;;;;6134519;23;20006;-86
2021/08/09 02:47:10;;;;;;;2.05;1.15;;;15.40;93.40;;;;;;6134956;23;20006;-85
2021/08/09 02:49:37;;;;;;;2.90;1.30;;;15.40;93.50;;;;;;6134138;23;20002;-87
2021/08/09 02:52:03;;;;;;;1.42;0.85;;;15.50;93.50;;;;;;6161385;23;20084;-84
2021/08/09 02:54:30;;;;;;;3.38;1.88;;;15.50;93.40;;;;;;6134398;23;20060;-85
2021/08/09 02:56:56;;;;;;;2.28;1.35;;;15.50;93.40;;;;;;6135080;23;20223;-86
2021/08/09 02:59:22;;;;;;;2.45;1.20;;;15.50;93.40;;;;;;6150183;23;20026;-85
2021/08/09 03:01:47;;;;;;;3.13;1.45;;;15.50;93.50;;;;;;6134370;23;20041;-85
2021/08/09 03:04:15;;;;;;;3.75;1.35;;;15.40;93.50;;;;;;6134529;23;20349;-86
2021/08/09 03:06:42;;;;;;;2.08;1.55;;;15.40;93.60;;;;;;6134025;23;20674;-85
2021/08/09 03:09:08;;;;;;;2.42;1.15;;;15.40;93.60;;;;;;6134596;23;20044;-87
2021/08/09 03:11:34;;;;;;;2.53;1.63;;;15.40;93.60;;;;;;6134194;23;20005;-85
2021/08/09 03:14:00;;;;;;;1.52;1.00;;;15.40;93.70;;;;;;6159673;23;20005;-86
2021/08/09 03:16:25;;;;;;;1.30;1.15;;;15.40;93.80;;;;;;6134128;23;20037;-86
2021/08/09 03:18:51;;;;;;;3.05;1.33;;;15.30;93.80;;;;;;6133818;23;20319;-85
2021/08/09 03:21:16;;;;;;;2.63;0.93;;;15.30;93.90;;;;;;6134335;23;20009;-86
2021/08/09 03:23:42;;;;;;;1.30;1.15;;;15.30;94.00;;;;;;6133943;23;20100;-85
2021/08/09 03:26:07;;;;;;;2.70;1.05;;;15.20;93.90;;;;;;6134303;23;20010;-86
2021/08/09 03:28:33;;;;;;;2.13;1.33;;;15.20;94.00;;;;;;6134043;23;20015;-85
2021/08/09 03:31:00;;;;;;;3.58;1.85;;;15.20;94.00;;;;;;6159091;23;20044;-86
2021/08/09 03:33:25;;;;;;;1.63;1.20;;;15.20;94.00;;;;;;6168675;23;20009;-86
2021/08/09 03:35:51;;;;;;;1.85;1.13;;;15.20;93.90;;;;;;6167004;23;20079;-84
2021/08/09 03:38:16;;;;;;;1.52;0.82;;;15.20;93.90;;;;;;6133784;23;20121;-86
2021/08/09 03:40:42;;;;;;;8.77;1.38;;;15.20;94.10;;;;;;6133739;23;20013;-85
2021/08/09 03:43:07;;;;;;;3.22;1.02;;;15.20;94.10;;;;;;6133509;23;20013;-85
2021/08/09 03:45:33;;;;;;;2.72;1.52;;;15.20;94.10;;;;;;6159505;23;20009;-85
2021/08/09 03:47:58;;;;;;;2.67;1.05;;;15.20;94.10;;;;;;6133976;23;19997;-86
2021/08/09 03:50:24;;;;;;;5.20;1.08;;;15.20;94.20;;;;;;6133612;23;20012;-84
2021/08/09 03:52:52;;;;;;;2.30;1.65;;;15.20;94.30;;;;;;6133680;23;20041;-85
2021/08/09 03:55:17;;;;;;;1.35;1.05;;;15.20;94.20;;;;;;6133558;23;20413;-85
2021/08/09 03:57:43;;;;;;;2.83;1.25;;;15.30;94.10;;;;;;6159037;23;20009;-86
2021/08/09 04:00:09;;;;;;;3.17;1.75;;;15.30;94.10;;;;;;6133553;23;20013;-85
2021/08/09 04:02:37;;;;;;;3.35;1.23;;;15.30;94.10;;;;;;6133276;23;20262;-86
2021/08/09 04:05:03;;;;;;;1.88;1.15;;;15.30;94.20;;;;;;6159494;23;20065;-86
2021/08/09 04:07:28;;;;;;;1.42;1.15;;;15.30;94.10;;;;;;6159478;23;20012;-86
2021/08/09 04:09:54;;;;;;;3.03;1.10;;;15.30;94.00;;;;;;6142331;23;20006;-87
2021/08/09 04:12:20;;;;;;;2.03;1.48;;;15.30;94.10;;;;;;6139378;23;20367;-86
2021/08/09 04:14:47;;;;;;;1.90;1.00;;;15.40;94.10;;;;;;6161029;23;20112;-86
2021/08/09 04:17:12;;;;;;;1.48;1.30;;;15.40;94.20;;;;;;6134059;23;20013;-86
2021/08/09 04:19:38;;;;;;;2.63;1.73;;;15.40;94.10;;;;;;6135539;23;20032;-86
2021/08/09 04:22:04;;;;;;;4.03;1.42;;;15.40;94.10;;;;;;6134015;23;20013;-87
2021/08/09 04:24:29;;;;;;;5.93;1.40;;;15.50;94.20;;;;;;6133789;23;20544;-87
2021/08/09 04:26:55;;;;;;;1.88;1.20;;;15.50;93.90;;;;;;6159371;23;20016;-88
2021/08/09 04:29:20;;;;;;;3.92;1.52;;;15.50;93.90;;;;;;6134317;23;20314;-86
2021/08/09 04:31:46;;;;;;;1.33;0.90;;;15.50;94.00;;;;;;6159333;23;20012;-87
2021/08/09 04:34:11;;;;;;;2.50;1.23;;;15.60;93.90;;;;;;6156177;23;20001;-84
2021/08/09 04:36:37;;;;;;;2.15;1.30;;;15.50;93.90;;;;;;6129469;23;20389;-85
2021/08/09 04:39:02;;;;;;;2.88;1.48;;;15.50;94.00;;;;;;6132446;23;20005;-86
2021/08/09 04:41:28;;;;;;;1.05;0.95;;;15.50;93.90;;;;;;6135676;23;19998;-87
2021/08/09 04:43:56;;;;;;;2.58;1.85;;;15.50;93.90;;;;;;6136760;23;20015;-87
2021/08/09 04:46:21;;;;;;;5.50;1.48;;;15.50;94.00;;;;;;6134922;23;20029;-87
2021/08/09 04:48:49;;;;;;;3.05;1.10;;;15.60;94.10;;;;;;6136035;23;20358;-88
2021/08/09 04:51:16;;;;;;;4.00;1.10;;;15.60;93.90;;;;;;6135396;23;20016;-87
2021/08/09 04:53:43;;;;;;;4.72;1.20;;;15.70;93.80;;;;;;6136246;23;20186;-86
2021/08/09 04:56:09;;;;;;;3.75;1.23;;;15.70;93.80;;;;;;6132769;23;20040;-87
2021/08/09 04:58:34;;;;;;;3.05;1.08;;;15.70;93.70;;;;;;6157937;23;20022;-87
2021/08/09 05:01:00;;;;;;;2.20;1.58;;;15.70;93.70;;;;;;6158997;23;20072;-87
2021/08/09 05:03:26;;;;;;;3.85;1.23;;;15.80;93.70;;;;;;6132490;23;20029;-87
2021/08/09 05:05:51;;;;;;;3.72;1.02;;;15.80;93.70;;;;;;6131524;23;20010;-86
2021/08/09 05:08:17;;;;;;;5.32;1.15;;;15.70;93.50;;;;;;6162369;23;20493;-88
2021/08/09 05:10:42;;;;;;;1.50;1.10;;;15.70;93.70;;;;;;6161496;23;20535;-87
2021/08/09 05:13:08;;;;;;;4.72;1.05;;;15.80;93.60;;;;;;6144427;23;20010;-86
2021/08/09 05:15:37;;;;;;;3.17;1.48;;;15.80;93.60;;;;;;6141462;23;20033;-87
2021/08/09 05:18:03;;;;;;;3.08;1.20;;;15.90;93.50;;;;;;6133888;23;20498;-85
2021/08/09 05:20:29;;;;;;;1.23;0.82;;;15.90;93.40;;;;;;6135763;23;20017;-87
2021/08/09 05:22:54;;;;;;;2.65;1.15;;;16.00;93.40;;;;;;6158088;23;20013;-87
2021/08/09 05:25:21;;;;;;;1.20;0.82;;;16.00;93.40;;;;;;6133555;23;20340;-87
2021/08/09 05:27:47;;;;;;;2.90;1.38;;;16.00;93.30;;;;;;6157723;23;20013;-87
2021/08/09 05:30:12;;;;;;;4.45;1.00;;;16.10;93.30;;;;;;6134787;23;20001;-87
2021/08/09 05:32:39;;;;;;;3.78;1.20;;;16.10;93.40;;;;;;6158991;23;20006;-88
2021/08/09 05:35:06;;;;;;;3.75;1.50;;;16.20;93.50;;;;;;6159203;23;20024;-87
2021/08/09 05:37:33;;;;;;;2.65;1.42;;;16.20;93.30;;;;;;6132239;23;20057;-88
2021/08/09 05:39:59;;;;;;;3.38;1.63;;;16.30;93.60;;;;;;6158265;23;20093;-88
2021/08/09 05:42:25;;;;;;;2.10;1.02;;;16.30;93.30;;;;;;6132395;23;20017;-88
2021/08/09 05:44:51;;;;;;;3.00;1.10;;;16.40;93.50;;;;;;6131851;23;20044;-87
2021/08/09 05:47:16;;;;;;;2.47;1.13;;;16.50;93.10;;;;;;6132964;23;20010;-87
2021/08/09 05:49:42;;;;;;;4.00;1.20;;;16.50;93.30;;;;;;6132509;23;20044;-88
2021/08/09 05:52:07;;;;;;;6.40;1.17;;;16.60;93.20;;;;;;6132267;23;20343;-85
2021/08/09 05:54:33;;;;;;;1.98;0.90;;;16.70;92.90;;;;;;6157270;23;20386;-86
2021/08/09 05:56:59;;;;;;;4.28;1.20;;;16.70;92.90;;;;;;6160491;23;20006;-86
2021/08/09 05:59:25;;;;;;;3.05;1.00;;;16.90;92.80;;;;;;6138611;23;20061;-87
2021/08/09 06:01:50;;;;;;;3.63;1.10;;;16.90;92.50;;;;;;6166842;23;20009;-86
2021/08/09 06:04:16;;;;;;;5.47;1.10;;;17.00;92.30;;;;;;6160253;23;20115;-87
2021/08/09 06:06:42;;;;;;;5.32;1.30;;;17.10;92.40;;;;;;6159266;23;20006;-86
2021/08/09 06:09:08;;;;;;;1.95;0.95;;;17.20;92.20;;;;;;6159259;23;20127;-86
2021/08/09 06:11:33;;;;;;;2.33;1.08;;;17.30;92.40;;;;;;6133605;23;20342;-87
2021/08/09 06:13:59;;;;;;;4.00;1.30;;;17.40;92.10;;;;;;6134336;23;20075;-87
2021/08/09 06:16:25;;;;;;;2.95;1.10;;;17.50;92.00;;;;;;6133355;23;20145;-86
2021/08/09 06:18:53;;;;;;;3.42;1.15;;;17.60;92.10;;;;;;6159281;23;20010;-86
2021/08/09 06:21:18;;;;;;;3.95;0.80;;;17.70;92.00;;;;;;6159568;23;20013;-86
2021/08/09 06:23:44;;;;;;;3.65;0.93;;;17.80;92.00;;;;;;6133320;23;20076;-87
2021/08/09 06:26:09;;;;;;;4.00;0.93;;;18.00;91.80;;;;;;6158922;23;19997;-86
2021/08/09 06:28:38;;;;;;;2.53;1.00;;;18.10;91.50;;;;;;6158502;23;20006;-87
2021/08/09 06:31:03;;;;;;;2.03;0.73;;;18.20;91.10;;;;;;6159628;23;20005;-86
2021/08/09 06:33:28;;;;;;;2.97;1.15;;;18.30;91.00;;;;;;6145498;23;20041;-86
2021/08/09 06:35:54;;;;;;;6.95;2.35;;;18.30;91.00;;;;;;6159841;23;20084;-86
2021/08/09 06:38:19;;;;;;;3.20;0.82;;;18.40;90.70;;;;;;6159491;23;20040;-87
2021/08/09 06:40:45;;;;;;;3.28;0.93;;;18.50;91.10;;;;;;6132720;23;20021;-87
2021/08/09 06:43:12;;;;;;;1.95;0.98;;;18.60;90.80;;;;;;6133508;23;20337;-86
2021/08/09 06:45:42;;;;;;;4.15;1.55;;;18.60;90.50;;;;;;6158618;23;20348;-86
2021/08/09 06:48:08;;;;;;;1.77;0.95;;;18.70;90.70;;;;;;6134127;23;20002;-86
2021/08/09 06:50:33;;;;;;;2.88;0.82;;;18.80;90.10;;;;;;6132735;23;20009;-87
2021/08/09 06:52:59;;;;;;;3.25;1.10;;;18.90;89.90;;;;;;6133247;23;20021;-86
2021/08/09 06:55:26;;;;;;;3.53;1.30;;;18.90;90.10;;;;;;6158306;23;20037;-87
2021/08/09 06:57:52;;;;;;;4.30;0.80;;;19.10;90.10;;;;;;6158501;23;20335;-87
2021/08/09 07:00:17;;;;;;;1.50;0.70;;;19.10;90.20;;;;;;6158268;23;20032;-87
2021/08/09 07:02:43;;;;;;;2.22;1.30;;;19.30;90.00;;;;;;6132919;23;20342;-87
2021/08/09 07:05:09;;;;;;;2.40;0.95;;;19.40;89.80;;;;;;6132490;23;19998;-86
2021/08/09 07:07:35;;;;;;;5.43;0.90;;;19.50;88.90;;;;;;6140625;23;20009;-86
2021/08/09 07:10:01;;;;;;;3.47;0.80;;;19.60;88.30;;;;;;6136142;23;20063;-87
2021/08/09 07:12:26;;;;;;;4.00;1.00;;;19.80;87.10;;;;;;6133326;23;20088;-86
2021/08/09 07:14:52;;;;;;;3.78;0.80;;;19.80;87.50;;;;;;6132565;23;20076;-86
2021/08/09 07:17:17;;;;;;;1.50;0.73;;;19.90;86.10;;;;;;6133104;23;20524;-86
2021/08/09 07:19:43;;;;;;;6.63;1.95;;;19.80;86.20;;;;;;6132961;23;20013;-87
2021/08/09 07:22:08;;;;;;;3.25;0.70;;;19.80;86.40;;;;;;6132939;23;20018;-87
2021/08/09 07:24:35;;;;;;;2.63;1.20;;;19.80;86.60;;;;;;6132136;23;20033;-87
2021/08/09 07:27:01;;;;;;;2.28;1.17;;;19.90;87.10;;;;;;6158879;23;20002;-87
2021/08/09 07:29:28;;;;;;;3.60;1.00;;;20.00;87.30;;;;;;6133431;23;20463;-87
2021/08/09 07:31:53;;;;;;;4.90;1.50;;;20.00;87.00;;;;;;6158512;23;20074;-87
2021/08/09 07:34:19;;;;;;;2.78;1.02;;;20.10;85.70;;;;;;6133561;23;20005;-85
2021/08/09 07:36:44;;;;;;;1.90;0.70;;;20.20;85.70;;;;;;6132575;23;20010;-90
2021/08/09 07:39:10;;;;;;;3.83;0.93;;;20.30;87.00;;;;;;6136337;23;20408;-91
2021/08/09 07:41:36;;;;;;;2.30;0.80;;;20.50;85.60;;;;;;6136052;23;20002;-88
2021/08/09 07:44:01;;;;;;;4.65;0.88;;;20.60;84.80;;;;;;6173361;23;20013;-86
2021/08/09 07:46:27;;;;;;;2.65;0.90;;;20.70;84.40;;;;;;6142355;23;20078;-86
2021/08/09 07:48:53;;;;;;;3.33;0.60;;;20.80;84.40;;;;;;6133460;23;20005;-86
2021/08/09 07:51:20;;;;;;;2.03;0.60;;;20.80;82.90;;;;;;6133111;23;20099;-87
2021/08/09 07:53:46;;;;;;;1.92;0.70;;;20.90;82.50;;;;;;6133151;23;20013;-86
2021/08/09 07:56:11;;;;;;;3.53;1.08;;;20.90;83.70;;;;;;6132803;23;20488;-87
2021/08/09 07:58:37;;;;;;;3.10;0.93;;;21.00;82.90;;;;;;6133188;23;20073;-86
2021/08/09 08:01:03;;;;;;;5.32;0.90;;;21.00;83.60;;;;;;6135308;23;20005;-86
2021/08/09 08:03:29;;;;;;;2.42;0.60;;;21.10;82.30;;;;;;6147372;23;20001;-88
2021/08/09 08:05:54;;;;;;;2.05;0.77;;;21.10;81.00;;;;;;6143406;23;20242;-88
2021/08/09 08:08:20;;;;;;;4.20;1.17;;;21.00;83.20;;;;;;6137813;23;19998;-88
2021/08/09 08:10:45;;;;;;;1.20;0.80;;;21.00;82.40;;;;;;6160116;23;20088;-86
2021/08/09 08:13:11;;;;;;;2.50;0.80;;;21.10;81.40;;;;;;6162172;23;20064;-87
2021/08/09 08:15:36;;;;;;;4.75;0.75;;;21.20;80.70;;;;;;6134783;23;20102;-86
2021/08/09 08:18:02;;;;;;;2.35;0.68;;;21.20;82.20;;;;;;6168885;23;20022;-87
2021/08/09 08:20:28;;;;;;;2.38;0.80;;;21.20;82.30;;;;;;6138474;23;20352;-87
2021/08/09 08:22:55;;;;;;;2.33;0.90;;;21.30;82.40;;;;;;6164722;23;20006;-88
2021/08/09 08:25:20;;;;;;;2.80;0.80;;;21.40;82.00;;;;;;6133290;23;20040;-88
2021/08/09 08:27:46;;;;;;;2.58;0.80;;;21.50;83.00;;;;;;6133414;23;20315;-87
2021/08/09 08:30:12;;;;;;;3.03;0.90;;;21.60;81.20;;;;;;6134596;23;20001;-87
2021/08/09 08:32:38;;;;;;;3.58;1.73;;;21.70;80.80;;;;;;6134190;23;20021;-89
2021/08/09 08:35:04;;;;;;;1.55;0.90;;;21.80;80.80;;;;;;6133806;23;20071;-87
2021/08/09 08:37:29;;;;;;;2.38;0.77;;;21.90;79.70;;;;;;6133768;23;20088;-87
2021/08/09 08:39:55;;;;;;;3.55;0.90;;;22.00;79.10;;;;;;6132678;23;20309;-88
2021/08/09 08:42:21;;;;;;;4.60;0.60;;;22.10;79.90;;;;;;6135122;23;20009;-87
2021/08/09 08:44:47;;;;;;;1.00;0.70;;;22.20;81.30;;;;;;6133195;23;20005;-87
2021/08/09 08:47:17;;;;;;;2.20;0.70;;;22.30;79.80;;;;;;6159173;23;20068;-87
2021/08/09 08:49:44;;;;;;;6.30;0.60;;;22.40;79.30;;;;;;6137385;23;20040;-88
2021/08/09 08:52:10;;;;;;;2.22;1.15;;;22.50;80.10;;;;;;6163039;23;20005;-87
2021/08/09 08:54:38;;;;;;;2.35;0.73;;;22.60;79.10;;;;;;6135179;23;20001;-88
2021/08/09 08:57:04;;;;;;;4.63;0.82;;;22.70;76.80;;;;;;6160843;23;20246;-86
2021/08/09 08:59:30;;;;;;;1.58;0.95;;;22.80;78.50;;;;;;6136226;23;20009;-89
2021/08/09 09:01:56;;;;;;;2.42;0.80;;;22.80;80.40;;;;;;6144863;23;20005;-88
2021/08/09 09:04:27;;;;;;;6.25;0.85;;;22.90;76.00;;;;;;6150004;23;20088;-87
2021/08/09 09:07:01;;;;;;;2.25;0.80;;;23.10;78.40;;;;;;6163534;23;20033;-89
2021/08/09 09:09:32;;;;;;;0.85;0.50;;;23.10;77.10;;;;;;6163233;23;20066;-90
2021/08/09 09:11:58;;;;;;;3.10;0.70;;;23.30;75.70;;;;;;6159296;23;20111;-89
2021/08/09 09:14:27;;;;;;;2.35;1.13;;;23.30;76.20;;;;;;6133452;23;20014;-86
2021/08/09 09:16:53;;;;;;;3.42;0.95;;;23.30;72.10;;;;;;6131906;23;20070;-87
2021/08/09 09:19:40;;;;;;;1.00;0.65;;;23.30;72.00;;;;;;6132635;23;20320;-85
2021/08/09 09:22:09;;;;;;;1.63;0.60;;;23.20;73.10;;;;;;6157775;23;20005;-88
2021/08/09 09:24:36;;;;;;;2.35;0.70;;;23.30;75.60;;;;;;6132325;23;20047;-87
2021/08/09 09:27:07;;;;;;;1.80;0.80;;;23.30;73.50;;;;;;6158069;23;20009;-87
2021/08/09 09:29:35;;;;;;;3.65;0.98;;;23.30;74.70;;;;;;6132763;23;20002;-86
2021/08/09 09:35:24;;;;;;;0.93;0.50;;;23.60;75.20;;;;;;6162726;23;20088;-86
2021/08/09 09:37:51;;;;;;;1.23;0.90;;;23.80;76.00;;;;;;6171428;23;20025;-89
2021/08/09 09:40:19;;;;;;;3.00;0.60;;;24.00;74.60;;;;;;6161216;23;20012;-88
2021/08/09 09:42:45;;;;;;;4.28;1.45;;;24.10;71.30;;;;;;6160497;23;20005;-88
2021/08/09 09:45:26;;;;;;;1.42;0.68;;;24.30;69.40;;;;;;6160216;23;20002;-87
2021/08/09 09:48:03;;;;;;;2.53;1.13;;;24.40;70.30;;;;;;6134322;23;20006;-86
2021/08/09 09:50:29;;;;;;;5.18;1.45;;;24.50;69.70;;;;;;6158899;23;20028;-86
2021/08/09 09:52:55;;;;;;;2.80;1.42;;;24.60;71.90;;;;;;6134934;23;20013;-88
2021/08/09 09:55:21;;;;;;;1.67;0.63;;;24.70;69.50;;;;;;6157596;23;20511;-86
2021/08/09 09:57:47;;;;;;;1.33;0.63;;;24.70;69.70;;;;;;6159921;23;20017;-87
2021/08/09 10:00:17;;;;;;;2.80;0.60;;;24.80;68.80;;;;;;6134690;23;20016;-86
2021/08/09 10:02:45;;;;;;;2.05;0.50;;;24.70;68.90;;;;;;6132660;23;20010;-87
2021/08/09 10:05:12;;;;;;;4.85;1.10;;;24.70;68.90;;;;;;6133160;23;20080;-87
2021/08/09 10:07:45;;;;;;;2.72;0.70;;;24.60;70.30;;;;;;6159988;23;20005;-89
2021/08/09 10:10:10;;;;;;;1.77;0.65;;;24.60;69.80;;;;;;6137259;23;20005;-88
2021/08/09 10:12:38;;;;;;;1.95;1.10;;;24.30;70.10;;;;;;6171988;23;20035;-89
2021/08/09 10:15:05;;;;;;;1.73;0.50;;;24.30;71.70;;;;;;6133304;23;20010;-89
2021/08/09 10:17:31;;;;;;;2.35;0.80;;;24.10;70.10;;;;;;6134415;23;20052;-87
2021/08/09 10:20:01;;;;;;;1.50;0.80;;;23.90;67.40;;;;;;6158512;23;20002;-88
2021/08/09 10:22:27;;;;;;;0.77;0.43;;;23.80;67.40;;;;;;6134403;23;20023;-86
2021/08/09 10:24:55;;;;;;;1.70;0.82;;;23.60;66.60;;;;;;6132659;23;20005;-85
2021/08/09 10:27:45;;;;;;;2.45;0.55;;;23.80;67.00;;;;;;6133790;23;20002;-87
2021/08/09 10:30:12;;;;;;;1.27;0.52;;;23.90;67.50;;;;;;6158925;23;20005;-87
2021/08/09 10:32:50;;;;;;;5.55;0.90;;;24.00;68.40;;;;;;6159103;23;20009;-87
2021/08/09 10:35:35;;;;;;;1.48;0.93;;;24.10;68.20;;;;;;6133044;23;20013;-87
2021/08/09 10:38:23;;;;;;;2.20;0.82;;;24.00;66.40;;;;;;6133362;23;20350;-73
2021/08/09 10:41:07;;;;;;;1.73;0.90;;;24.00;68.60;;;;;;6133895;23;20009;-86
2021/08/09 10:43:33;;;;;;;2.80;0.60;;;24.10;65.40;;;;;;6157813;23;20389;-85
2021/08/09 10:45:58;;;;;;;4.22;0.80;;;24.10;65.30;;;;;;6158316;23;20016;-86
2021/08/09 10:48:42;;;;;;;4.35;0.90;;;24.20;66.00;;;;;;6140199;23;19998;-85
2021/08/09 10:51:08;;;;;;;2.15;0.80;;;24.30;64.90;;;;;;6162059;23;20001;-85
2021/08/09 10:53:35;;;;;;;1.98;0.80;;;24.40;65.60;;;;;;6161811;23;20365;-91
2021/08/09 10:56:02;;;;;;;2.72;0.88;;;24.50;63.90;;;;;;6133954;23;20317;-89
2021/08/09 10:58:43;;;;;;;2.08;0.68;;;24.70;64.10;;;;;;6157926;23;20033;-87
2021/08/09 11:01:10;;;;;;;2.60;0.82;;;24.90;62.20;;;;;;6132707;23;20009;-87
2021/08/09 11:04:04;;;;;;;3.50;0.65;;;25.10;61.80;;;;;;6133759;23;20251;-88
2021/08/09 11:06:41;;;;;;;1.58;0.70;;;25.20;60.40;;;;;;6133681;23;20009;-89
2021/08/09 11:09:32;;;;;;;2.78;0.73;;;25.40;62.10;;;;;;6158192;23;20001;-87
2021/08/09 11:12:12;;;;;;;1.55;0.50;;;25.50;61.20;;;;;;6133016;23;20219;-87
2021/08/09 11:15:00;;;;;;;1.10;0.70;;;25.60;60.00;;;;;;6132758;23;20013;-87
2021/08/09 11:17:26;;;;;;;0.95;0.50;;;25.90;60.90;;;;;;6132948;23;20006;-87
2021/08/09 11:20:08;;;;;;;4.82;1.15;;;26.10;65.30;;;;;;6134451;23;20108;-88
2021/08/09 11:22:34;;;;;;;1.33;0.70;;;26.30;60.80;;;;;;6150885;23;20001;-88
2021/08/09 11:25:00;;;;;;;2.72;0.80;;;26.50;60.00;;;;;;6136693;23;20036;-91
2021/08/09 11:27:25;;;;;;;4.43;0.85;;;26.80;60.10;;;;;;6133672;23;20006;-87
2021/08/09 11:30:00;;;;;;;4.38;0.80;;;26.90;56.60;;;;;;6133648;23;20044;-88
2021/08/09 11:32:43;;;;;;;3.58;0.60;;;27.10;62.20;;;;;;6158978;23;20009;-87
2021/08/09 11:35:16;;;;;;;2.38;0.68;;;27.30;58.60;;;;;;6132462;23;20005;-87
2021/08/09 11:37:55;;;;;;;2.90;0.80;;;27.40;56.20;;;;;;6133173;23;20020;-87
2021/08/09 11:40:39;;;;;;;1.83;0.60;;;27.50;57.80;;;;;;6134596;23;20342;-88
2021/08/09 11:43:55;;;;;;;1.55;0.47;;;27.50;56.70;;;;;;6134528;23;20005;-87
2021/08/09 11:46:30;;;;;;;1.55;0.60;;;27.50;55.90;;;;;;6132195;23;20002;-88
2021/08/09 11:48:59;;;;;;;0.90;0.50;;;27.50;58.40;;;;;;6134253;23;20009;-88
2021/08/09 11:51:46;;;;;;;3.60;0.68;;;27.60;58.10;;;;;;6133581;23;19998;-88
2021/08/09 12:01:05;;;;;;;4.97;0.50;;;27.70;58.00;;;;;;6079036;23;20019;-88
2021/08/09 12:04:08;;;;;;;1.50;0.50;;;27.70;56.00;;;;;;6131041;23;20010;-88
2021/08/09 12:06:44;;;;;;;3.90;0.85;;;27.60;56.50;;;;;;6129468;23;20109;-87
2021/08/09 12:09:43;;;;;;;1.55;0.70;;;27.40;57.70;;;;;;6129435;23;20096;-88
2021/08/09 12:12:26;;;;;;;2.90;1.10;;;27.30;59.20;;;;;;6129272;23;20041;-88
2021/08/09 12:15:00;;;;;;;4.90;0.90;;;27.30;56.30;;;;;;6128360;23;20065;-87
2021/08/09 12:17:38;;;;;;;1.52;0.68;;;27.20;57.40;;;;;;6128551;23;20009;-88
2021/08/09 12:20:14;;;;;;;2.67;0.90;;;27.20;58.20;;;;;;6128653;23;20108;-87
2021/08/09 12:22:42;;;;;;;1.73;0.80;;;27.40;59.80;;;;;;6128823;23;20002;-88
2021/08/09 12:25:22;;;;;;;2.30;0.68;;;27.60;59.40;;;;;;6128484;23;20010;-87
2021/08/09 12:28:07;;;;;;;1.65;0.50;;;27.60;58.40;;;;;;6129106;23;20009;-88
2021/08/09 12:30:53;;;;;;;2.28;0.60;;;27.70;55.80;;;;;;6130160;23;20002;-88
2021/08/09 12:33:21;;;;;;;1.63;0.80;;;27.60;56.70;;;;;;6137990;23;20025;-87
2021/08/09 12:35:48;;;;;;;2.83;0.85;;;27.60;55.90;;;;;;6139921;23;20018;-88
2021/08/09 12:38:14;;;;;;;2.03;0.65;;;27.50;55.70;;;;;;6143406;23;20342;-86
2021/08/09 12:40:41;;;;;;;1.48;0.63;;;27.50;60.00;;;;;;6130630;23;20005;-88
2021/08/09 12:43:21;;;;;;;1.10;0.40;;;27.50;54.40;;;;;;6129298;23;20136;-89
2021/08/09 12:46:25;;;;;;;1.75;0.60;;;27.40;55.90;;;;;;6128943;23;20010;-88
2021/08/09 12:49:05;;;;;;;1.67;0.70;;;27.50;56.90;;;;;;6128831;23;20080;-88
2021/08/09 12:51:39;;;;;;;1.20;0.63;;;27.40;55.30;;;;;;6127010;23;20253;-86
2021/08/09 12:54:29;;;;;;;1.58;0.65;;;27.40;54.40;;;;;;6128403;23;20014;-87
2021/08/09 12:56:55;;;;;;;4.60;1.00;;;27.50;57.00;;;;;;6126995;23;20036;-86
2021/08/09 13:00:09;;;;;;;1.73;0.68;;;27.70;56.10;;;;;;6128757;23;20010;-88
2021/08/09 13:02:39;;;;;;;1.95;0.60;;;27.80;54.80;;;;;;6126463;23;20024;-86
2021/08/09 13:05:31;;;;;;;1.40;0.60;;;27.70;53.30;;;;;;6127460;23;20028;-88
2021/08/09 13:08:16;;;;;;;;;;;;;;;;;;;;;
2021/08/09 13:10:47;;;;;;;1.42;0.63;;;27.40;54.20;;;;;;6158699;23;20012;-88